sensor_id;sensor_type;location;lat;lon;timestamp;pressure;altitude;pressure_sealevel;temperature
67501;BMP180;54349;52.528;19.760;2022-11-15T00:00:27;100960.40;;;22.78
67501;BMP180;54349;52.528;19.760;2022-11-15T00:03:26;100962.20;;;22.80
67501;BMP180;54349;52.528;19.760;2022-11-15T00:06:13;100965.80;;;22.80
67501;BMP180;54349;52.528;19.760;2022-11-15T00:09:00;100960.20;;;22.80
67501;BMP180;54349;52.528;19.760;2022-11-15T00:11:47;100953.80;;;22.80
67501;BMP180;54349;52.528;19.760;2022-11-15T00:14:34;100947.20;;;22.80
67501;BMP180;54349;52.528;19.760;2022-11-15T00:17:21;100943.60;;;22.80
67501;BMP180;54349;52.528;19.760;2022-11-15T00:20:09;100935.40;;;22.80
67501;BMP180;54349;52.528;19.760;2022-11-15T00:22:56;100939.20;;;22.80
67501;BMP180;54349;52.528;19.760;2022-11-15T00:25:44;100934.80;;;22.80
67501;BMP180;54349;52.528;19.760;2022-11-15T00:28:31;100932.80;;;22.80
67501;BMP180;54349;52.528;19.760;2022-11-15T00:31:18;100927.60;;;22.80
67501;BMP180;54349;52.528;19.760;2022-11-15T00:34:04;100930.20;;;22.80
67501;BMP180;54349;52.528;19.760;2022-11-15T00:36:51;100927.60;;;22.80
67501;BMP180;54349;52.528;19.760;2022-11-15T00:39:38;100928.60;;;22.80
67501;BMP180;54349;52.528;19.760;2022-11-15T00:42:25;100922.40;;;22.80
67501;BMP180;54349;52.528;19.760;2022-11-15T00:45:12;100921.20;;;22.80
67501;BMP180;54349;52.528;19.760;2022-11-15T00:47:59;100918.60;;;22.80
67501;BMP180;54349;52.528;19.760;2022-11-15T00:50:46;100915.80;;;22.80
67501;BMP180;54349;52.528;19.760;2022-11-15T00:53:33;100909.80;;;22.80
67501;BMP180;54349;52.528;19.760;2022-11-15T00:56:21;100917.60;;;22.80
67501;BMP180;54349;52.528;19.760;2022-11-15T00:59:07;100909.80;;;22.80
67501;BMP180;54349;52.528;19.760;2022-11-15T01:01:54;100914.80;;;22.80
67501;BMP180;54349;52.528;19.760;2022-11-15T01:04:41;100903.80;;;22.80
67501;BMP180;54349;52.528;19.760;2022-11-15T01:07:28;100904.60;;;22.80
67501;BMP180;54349;52.528;19.760;2022-11-15T01:10:15;100897.20;;;22.70
67501;BMP180;54349;52.528;19.760;2022-11-15T01:13:02;100896.00;;;22.70
67501;BMP180;54349;52.528;19.760;2022-11-15T01:15:49;100882.00;;;22.70
67501;BMP180;54349;52.528;19.760;2022-11-15T01:18:37;100883.00;;;22.66
67501;BMP180;54349;52.528;19.760;2022-11-15T01:21:24;100886.20;;;22.60
67501;BMP180;54349;52.528;19.760;2022-11-15T01:24:14;100878.80;;;22.60
67501;BMP180;54349;52.528;19.760;2022-11-15T01:27:01;100878.20;;;22.52
67501;BMP180;54349;52.528;19.760;2022-11-15T01:29:48;100881.60;;;22.50
67501;BMP180;54349;52.528;19.760;2022-11-15T01:32:35;100879.00;;;22.50
67501;BMP180;54349;52.528;19.760;2022-11-15T01:35:22;100876.80;;;22.42
67501;BMP180;54349;52.528;19.760;2022-11-15T01:38:09;100875.40;;;22.40
67501;BMP180;54349;52.528;19.760;2022-11-15T01:40:55;100872.40;;;22.40
67501;BMP180;54349;52.528;19.760;2022-11-15T01:43:43;100865.60;;;22.40
67501;BMP180;54349;52.528;19.760;2022-11-15T01:46:38;100859.20;;;22.34
67501;BMP180;54349;52.528;19.760;2022-11-15T01:49:26;100859.00;;;22.30
67501;BMP180;54349;52.528;19.760;2022-11-15T01:52:19;100849.20;;;22.30
67501;BMP180;54349;52.528;19.760;2022-11-15T01:55:11;100845.80;;;22.30
67501;BMP180;54349;52.528;19.760;2022-11-15T01:58:04;100847.20;;;22.20
67501;BMP180;54349;52.528;19.760;2022-11-15T02:00:51;100840.00;;;22.20
67501;BMP180;54349;52.528;19.760;2022-11-15T02:04:00;100836.00;;;22.20
67501;BMP180;54349;52.528;19.760;2022-11-15T02:06:49;100827.60;;;22.10
67501;BMP180;54349;52.528;19.760;2022-11-15T02:09:38;100827.00;;;22.10
67501;BMP180;54349;52.528;19.760;2022-11-15T02:12:25;100829.40;;;22.10
67501;BMP180;54349;52.528;19.760;2022-11-15T02:15:13;100831.60;;;22.10
67501;BMP180;54349;52.528;19.760;2022-11-15T02:18:27;100824.80;;;22.02
67501;BMP180;54349;52.528;19.760;2022-11-15T02:21:59;100829.60;;;22.00
67501;BMP180;54349;52.528;19.760;2022-11-15T02:32:06;100807.40;;;21.90
67501;BMP180;54349;52.528;19.760;2022-11-15T02:38:12;100797.00;;;21.90
67501;BMP180;54349;52.528;19.760;2022-11-15T02:41:10;100794.60;;;21.80
67501;BMP180;54349;52.528;19.760;2022-11-15T02:44:07;100785.80;;;21.80
67501;BMP180;54349;52.528;19.760;2022-11-15T02:47:05;100776.20;;;21.80
67501;BMP180;54349;52.528;19.760;2022-11-15T02:50:13;100773.60;;;21.80
67501;BMP180;54349;52.528;19.760;2022-11-15T02:53:01;100767.60;;;21.72
67501;BMP180;54349;52.528;19.760;2022-11-15T02:55:51;100767.60;;;21.70
67501;BMP180;54349;52.528;19.760;2022-11-15T02:59:00;100762.20;;;21.70
67501;BMP180;54349;52.528;19.760;2022-11-15T03:05:44;100762.40;;;21.66
67501;BMP180;54349;52.528;19.760;2022-11-15T03:11:49;100759.40;;;21.60
67501;BMP180;54349;52.528;19.760;2022-11-15T03:15:04;100763.20;;;21.60
67501;BMP180;54349;52.528;19.760;2022-11-15T03:18:00;100765.20;;;21.58
67501;BMP180;54349;52.528;19.760;2022-11-15T03:20:50;100762.20;;;21.50
67501;BMP180;54349;52.528;19.760;2022-11-15T03:23:39;100753.80;;;21.50
67501;BMP180;54349;52.528;19.760;2022-11-15T03:26:29;100746.60;;;21.50
67501;BMP180;54349;52.528;19.760;2022-11-15T03:29:24;100750.00;;;21.50
67501;BMP180;54349;52.528;19.760;2022-11-15T03:32:24;100748.60;;;21.50
67501;BMP180;54349;52.528;19.760;2022-11-15T03:35:26;100747.40;;;21.44
67501;BMP180;54349;52.528;19.760;2022-11-15T03:38:27;100743.60;;;21.40
67501;BMP180;54349;52.528;19.760;2022-11-15T03:41:40;100741.80;;;21.40
67501;BMP180;54349;52.528;19.760;2022-11-15T03:44:59;100738.00;;;21.40
67501;BMP180;54349;52.528;19.760;2022-11-15T03:48:10;100740.20;;;21.40
67501;BMP180;54349;52.528;19.760;2022-11-15T03:50:59;100728.80;;;21.34
67501;BMP180;54349;52.528;19.760;2022-11-15T03:53:47;100723.60;;;21.30
67501;BMP180;54349;52.528;19.760;2022-11-15T03:56:34;100718.00;;;21.30
67501;BMP180;54349;52.528;19.760;2022-11-15T03:59:21;100715.40;;;21.30
67501;BMP180;54349;52.528;19.760;2022-11-15T04:02:08;100714.00;;;21.30
67501;BMP180;54349;52.528;19.760;2022-11-15T04:04:55;100714.40;;;21.30
67501;BMP180;54349;52.528;19.760;2022-11-15T04:07:41;100709.00;;;21.26
67501;BMP180;54349;52.528;19.760;2022-11-15T04:10:29;100706.40;;;21.30
67501;BMP180;54349;52.528;19.760;2022-11-15T04:13:16;100713.20;;;21.30
67501;BMP180;54349;52.528;19.760;2022-11-15T04:16:02;100705.20;;;21.32
67501;BMP180;54349;52.528;19.760;2022-11-15T04:18:49;100700.80;;;21.40
67501;BMP180;54349;52.528;19.760;2022-11-15T04:21:56;100702.20;;;21.40
67501;BMP180;54349;52.528;19.760;2022-11-15T04:25:02;100699.40;;;21.40
67501;BMP180;54349;52.528;19.760;2022-11-15T04:27:49;100700.20;;;21.40
67501;BMP180;54349;52.528;19.760;2022-11-15T04:30:37;100703.20;;;21.40
67501;BMP180;54349;52.528;19.760;2022-11-15T04:33:24;100702.80;;;21.50
67501;BMP180;54349;52.528;19.760;2022-11-15T04:36:10;100696.80;;;21.50
67501;BMP180;54349;52.528;19.760;2022-11-15T04:39:17;100693.40;;;21.60
67501;BMP180;54349;52.528;19.760;2022-11-15T04:42:04;100695.60;;;21.62
67501;BMP180;54349;52.528;19.760;2022-11-15T04:44:51;100699.20;;;21.70
67501;BMP180;54349;52.528;19.760;2022-11-15T04:47:37;100694.80;;;21.70
67501;BMP180;54349;52.528;19.760;2022-11-15T04:50:24;100689.40;;;21.70
67501;BMP180;54349;52.528;19.760;2022-11-15T04:53:11;100688.00;;;21.70
67501;BMP180;54349;52.528;19.760;2022-11-15T04:55:58;100677.80;;;21.80
67501;BMP180;54349;52.528;19.760;2022-11-15T04:58:45;100680.40;;;21.90
67501;BMP180;54349;52.528;19.760;2022-11-15T05:01:31;100670.80;;;21.90
67501;BMP180;54349;52.528;19.760;2022-11-15T05:04:18;100667.60;;;22.00
67501;BMP180;54349;52.528;19.760;2022-11-15T05:07:06;100672.00;;;22.00
67501;BMP180;54349;52.528;19.760;2022-11-15T05:09:53;100667.40;;;22.04
67501;BMP180;54349;52.528;19.760;2022-11-15T05:12:40;100669.00;;;22.10
67501;BMP180;54349;52.528;19.760;2022-11-15T05:15:26;100669.00;;;22.10
67501;BMP180;54349;52.528;19.760;2022-11-15T05:18:13;100667.00;;;22.10
67501;BMP180;54349;52.528;19.760;2022-11-15T05:21:10;100667.00;;;22.04
67501;BMP180;54349;52.528;19.760;2022-11-15T05:23:57;100661.20;;;22.08
67501;BMP180;54349;52.528;19.760;2022-11-15T05:26:44;100656.60;;;22.10
67501;BMP180;54349;52.528;19.760;2022-11-15T05:29:31;100656.40;;;22.14
67501;BMP180;54349;52.528;19.760;2022-11-15T05:32:18;100664.00;;;22.20
67501;BMP180;54349;52.528;19.760;2022-11-15T05:35:08;100659.40;;;22.20
67501;BMP180;54349;52.528;19.760;2022-11-15T05:37:58;100661.60;;;22.30
67501;BMP180;54349;52.528;19.760;2022-11-15T05:40:46;100656.20;;;22.30
67501;BMP180;54349;52.528;19.760;2022-11-15T05:43:37;100652.60;;;22.30
67501;BMP180;54349;52.528;19.760;2022-11-15T05:46:24;100650.40;;;22.30
67501;BMP180;54349;52.528;19.760;2022-11-15T05:49:16;100651.80;;;22.30
67501;BMP180;54349;52.528;19.760;2022-11-15T05:52:09;100648.40;;;22.30
67501;BMP180;54349;52.528;19.760;2022-11-15T05:54:58;100651.80;;;22.40
67501;BMP180;54349;52.528;19.760;2022-11-15T05:57:45;100651.20;;;22.40
67501;BMP180;54349;52.528;19.760;2022-11-15T06:00:33;100650.80;;;22.40
67501;BMP180;54349;52.528;19.760;2022-11-15T06:03:20;100647.40;;;22.40
67501;BMP180;54349;52.528;19.760;2022-11-15T06:06:07;100644.00;;;22.40
67501;BMP180;54349;52.528;19.760;2022-11-15T06:09:02;100645.20;;;22.40
67501;BMP180;54349;52.528;19.760;2022-11-15T06:11:49;100642.80;;;22.40
67501;BMP180;54349;52.528;19.760;2022-11-15T06:14:35;100649.40;;;22.40
67501;BMP180;54349;52.528;19.760;2022-11-15T06:17:22;100650.80;;;22.40
67501;BMP180;54349;52.528;19.760;2022-11-15T06:20:10;100652.40;;;22.48
67501;BMP180;54349;52.528;19.760;2022-11-15T06:23:03;100655.80;;;22.50
67501;BMP180;54349;52.528;19.760;2022-11-15T06:25:51;100659.80;;;22.48
67501;BMP180;54349;52.528;19.760;2022-11-15T06:28:37;100663.60;;;22.40
67501;BMP180;54349;52.528;19.760;2022-11-15T06:31:24;100663.20;;;22.40
67501;BMP180;54349;52.528;19.760;2022-11-15T06:34:11;100669.00;;;22.40
67501;BMP180;54349;52.528;19.760;2022-11-15T06:36:58;100667.40;;;22.32
67501;BMP180;54349;52.528;19.760;2022-11-15T06:39:45;100664.20;;;22.30
67501;BMP180;54349;52.528;19.760;2022-11-15T06:42:32;100668.80;;;22.30
67501;BMP180;54349;52.528;19.760;2022-11-15T06:45:19;100673.60;;;22.30
67501;BMP180;54349;52.528;19.760;2022-11-15T06:48:07;100678.20;;;22.20
67501;BMP180;54349;52.528;19.760;2022-11-15T06:50:58;100678.80;;;22.20
67501;BMP180;54349;52.528;19.760;2022-11-15T06:53:45;100677.20;;;22.20
67501;BMP180;54349;52.528;19.760;2022-11-15T06:56:34;100671.80;;;22.10
67501;BMP180;54349;52.528;19.760;2022-11-15T06:59:21;100674.00;;;22.10
67501;BMP180;54349;52.528;19.760;2022-11-15T07:02:13;100674.20;;;22.10
67501;BMP180;54349;52.528;19.760;2022-11-15T07:05:00;100673.60;;;22.10
67501;BMP180;54349;52.528;19.760;2022-11-15T07:07:55;100677.60;;;22.02
67501;BMP180;54349;52.528;19.760;2022-11-15T07:10:42;100681.80;;;22.00
67501;BMP180;54349;52.528;19.760;2022-11-15T07:13:31;100677.60;;;22.00
67501;BMP180;54349;52.528;19.760;2022-11-15T07:16:22;100681.00;;;22.00
67501;BMP180;54349;52.528;19.760;2022-11-15T07:19:09;100678.40;;;22.00
67501;BMP180;54349;52.528;19.760;2022-11-15T07:21:57;100674.40;;;22.00
67501;BMP180;54349;52.528;19.760;2022-11-15T07:24:44;100676.20;;;22.00
67501;BMP180;54349;52.528;19.760;2022-11-15T07:27:31;100671.20;;;22.00
67501;BMP180;54349;52.528;19.760;2022-11-15T07:30:18;100670.60;;;22.00
67501;BMP180;54349;52.528;19.760;2022-11-15T07:33:05;100674.00;;;22.00
67501;BMP180;54349;52.528;19.760;2022-11-15T07:35:52;100668.00;;;22.00
67501;BMP180;54349;52.528;19.760;2022-11-15T07:38:39;100671.20;;;22.02
67501;BMP180;54349;52.528;19.760;2022-11-15T07:41:29;100668.60;;;22.06
67501;BMP180;54349;52.528;19.760;2022-11-15T07:44:16;100662.60;;;22.10
67501;BMP180;54349;52.528;19.760;2022-11-15T07:47:03;100657.60;;;22.10
67501;BMP180;54349;52.528;19.760;2022-11-15T07:49:52;100655.00;;;22.10
67501;BMP180;54349;52.528;19.760;2022-11-15T07:52:38;100658.00;;;22.10
67501;BMP180;54349;52.528;19.760;2022-11-15T07:55:27;100655.60;;;22.10
67501;BMP180;54349;52.528;19.760;2022-11-15T07:58:16;100654.20;;;22.20
67501;BMP180;54349;52.528;19.760;2022-11-15T08:01:08;100654.60;;;22.20
67501;BMP180;54349;52.528;19.760;2022-11-15T08:03:55;100650.60;;;22.20
67501;BMP180;54349;52.528;19.760;2022-11-15T08:06:42;100652.00;;;22.20
67501;BMP180;54349;52.528;19.760;2022-11-15T08:09:29;100654.40;;;22.20
67501;BMP180;54349;52.528;19.760;2022-11-15T08:12:16;100651.20;;;22.20
67501;BMP180;54349;52.528;19.760;2022-11-15T08:15:03;100643.40;;;22.20
67501;BMP180;54349;52.528;19.760;2022-11-15T08:17:59;100641.20;;;22.20
67501;BMP180;54349;52.528;19.760;2022-11-15T08:20:47;100634.20;;;22.30
67501;BMP180;54349;52.528;19.760;2022-11-15T08:23:33;100638.20;;;22.30
67501;BMP180;54349;52.528;19.760;2022-11-15T08:26:21;100633.80;;;22.30
67501;BMP180;54349;52.528;19.760;2022-11-15T08:29:08;100632.20;;;22.30
67501;BMP180;54349;52.528;19.760;2022-11-15T08:31:55;100631.40;;;22.30
67501;BMP180;54349;52.528;19.760;2022-11-15T08:34:42;100624.60;;;22.30
67501;BMP180;54349;52.528;19.760;2022-11-15T08:37:29;100626.20;;;22.30
67501;BMP180;54349;52.528;19.760;2022-11-15T08:40:16;100624.00;;;22.30
67501;BMP180;54349;52.528;19.760;2022-11-15T08:43:05;100620.80;;;22.30
67501;BMP180;54349;52.528;19.760;2022-11-15T08:45:56;100622.60;;;22.30
67501;BMP180;54349;52.528;19.760;2022-11-15T08:48:42;100614.40;;;22.30
67501;BMP180;54349;52.528;19.760;2022-11-15T08:51:30;100615.00;;;22.30
67501;BMP180;54349;52.528;19.760;2022-11-15T08:54:17;100617.00;;;22.30
67501;BMP180;54349;52.528;19.760;2022-11-15T08:57:04;100616.80;;;22.30
67501;BMP180;54349;52.528;19.760;2022-11-15T08:59:51;100615.20;;;22.30
67501;BMP180;54349;52.528;19.760;2022-11-15T09:02:39;100616.60;;;22.36
67501;BMP180;54349;52.528;19.760;2022-11-15T09:05:26;100611.60;;;22.32
67501;BMP180;54349;52.528;19.760;2022-11-15T09:08:13;100616.00;;;22.30
67501;BMP180;54349;52.528;19.760;2022-11-15T09:11:19;100610.60;;;22.30
67501;BMP180;54349;52.528;19.760;2022-11-15T09:14:12;100612.00;;;22.30
67501;BMP180;54349;52.528;19.760;2022-11-15T09:16:59;100611.00;;;22.36
67501;BMP180;54349;52.528;19.760;2022-11-15T09:19:46;100607.20;;;22.30
67501;BMP180;54349;52.528;19.760;2022-11-15T09:22:33;100611.00;;;22.34
67501;BMP180;54349;52.528;19.760;2022-11-15T09:25:20;100606.60;;;22.32
67501;BMP180;54349;52.528;19.760;2022-11-15T09:28:08;100606.20;;;22.32
67501;BMP180;54349;52.528;19.760;2022-11-15T09:31:04;100598.60;;;22.30
67501;BMP180;54349;52.528;19.760;2022-11-15T09:33:51;100597.20;;;22.30
67501;BMP180;54349;52.528;19.760;2022-11-15T09:36:38;100595.80;;;22.32
67501;BMP180;54349;52.528;19.760;2022-11-15T09:39:25;100587.60;;;22.32
67501;BMP180;54349;52.528;19.760;2022-11-15T09:49:04;100593.20;;;22.36
67501;BMP180;54349;52.528;19.760;2022-11-15T09:51:43;100596.60;;;22.30
67501;BMP180;54349;52.528;19.760;2022-11-15T09:57:55;100584.80;;;22.30
67501;BMP180;54349;52.528;19.760;2022-11-15T10:00:38;100582.80;;;22.30
67501;BMP180;54349;52.528;19.760;2022-11-15T10:03:29;100570.20;;;22.30
67501;BMP180;54349;52.528;19.760;2022-11-15T10:06:03;100574.80;;;22.30
67501;BMP180;54349;52.528;19.760;2022-11-15T10:08:51;100573.20;;;22.34
67501;BMP180;54349;52.528;19.760;2022-11-15T10:11:35;100570.60;;;22.40
67501;BMP180;54349;52.528;19.760;2022-11-15T10:14:15;100570.40;;;22.40
67501;BMP180;54349;52.528;19.760;2022-11-15T10:20:29;100569.60;;;22.40
67501;BMP180;54349;52.528;19.760;2022-11-15T10:23:07;100567.20;;;22.40
67501;BMP180;54349;52.528;19.760;2022-11-15T10:25:38;100565.40;;;22.40
67501;BMP180;54349;52.528;19.760;2022-11-15T10:28:22;100557.20;;;22.40
67501;BMP180;54349;52.528;19.760;2022-11-15T10:30:59;100556.80;;;22.40
67501;BMP180;54349;52.528;19.760;2022-11-15T10:33:37;100554.40;;;22.40
67501;BMP180;54349;52.528;19.760;2022-11-15T10:46:38;100550.60;;;22.40
67501;BMP180;54349;52.528;19.760;2022-11-15T10:49:23;100544.60;;;22.40
67501;BMP180;54349;52.528;19.760;2022-11-15T10:52:12;100544.20;;;22.40
67501;BMP180;54349;52.528;19.760;2022-11-15T10:58:04;100532.60;;;22.40
67501;BMP180;54349;52.528;19.760;2022-11-15T11:00:36;100532.80;;;22.40
67501;BMP180;54349;52.528;19.760;2022-11-15T11:03:37;100535.00;;;22.40
67501;BMP180;54349;52.528;19.760;2022-11-15T11:06:16;100531.20;;;22.40
67501;BMP180;54349;52.528;19.760;2022-11-15T11:09:10;100527.00;;;22.40
67501;BMP180;54349;52.528;19.760;2022-11-15T11:11:49;100530.60;;;22.40
67501;BMP180;54349;52.528;19.760;2022-11-15T11:14:34;100534.20;;;22.40
67501;BMP180;54349;52.528;19.760;2022-11-15T11:20:45;100519.40;;;22.40
67501;BMP180;54349;52.528;19.760;2022-11-15T11:27:01;100521.80;;;22.40
67501;BMP180;54349;52.528;19.760;2022-11-15T11:32:20;100512.00;;;22.40
67501;BMP180;54349;52.528;19.760;2022-11-15T11:35:19;100509.60;;;22.40
67501;BMP180;54349;52.528;19.760;2022-11-15T11:38:05;100500.60;;;22.40
67501;BMP180;54349;52.528;19.760;2022-11-15T11:41:04;100489.80;;;22.40
67501;BMP180;54349;52.528;19.760;2022-11-15T11:46:54;100488.40;;;22.40
67501;BMP180;54349;52.528;19.760;2022-11-15T11:52:43;100480.20;;;22.40
67501;BMP180;54349;52.528;19.760;2022-11-15T11:55:23;100478.00;;;22.40
67501;BMP180;54349;52.528;19.760;2022-11-15T12:01:17;100474.80;;;22.40
67501;BMP180;54349;52.528;19.760;2022-11-15T12:07:04;100468.00;;;22.40
67501;BMP180;54349;52.528;19.760;2022-11-15T12:12:27;100468.20;;;22.40
67501;BMP180;54349;52.528;19.760;2022-11-15T12:17:40;100459.40;;;22.46
67501;BMP180;54349;52.528;19.760;2022-11-15T12:20:26;100457.20;;;22.48
67501;BMP180;54349;52.528;19.760;2022-11-15T12:23:20;100451.20;;;22.44
67501;BMP180;54349;52.528;19.760;2022-11-15T12:26:26;100444.80;;;22.40
67501;BMP180;54349;52.528;19.760;2022-11-15T12:29:04;100449.40;;;22.40
67501;BMP180;54349;52.528;19.760;2022-11-15T12:31:44;100449.00;;;22.40
67501;BMP180;54349;52.528;19.760;2022-11-15T12:36:50;100452.00;;;22.40
67501;BMP180;54349;52.528;19.760;2022-11-15T12:39:19;100449.00;;;22.40
67501;BMP180;54349;52.528;19.760;2022-11-15T12:57:29;100426.20;;;22.40
67501;BMP180;54349;52.528;19.760;2022-11-15T13:02:45;100433.40;;;22.40
67501;BMP180;54349;52.528;19.760;2022-11-15T13:15:37;100405.80;;;22.40
67501;BMP180;54349;52.528;19.760;2022-11-15T13:18:40;100410.80;;;22.40
67501;BMP180;54349;52.528;19.760;2022-11-15T13:21:22;100412.60;;;22.40
67501;BMP180;54349;52.528;19.760;2022-11-15T13:24:13;100407.80;;;22.40
67501;BMP180;54349;52.528;19.760;2022-11-15T13:26:43;100413.40;;;22.40
67501;BMP180;54349;52.528;19.760;2022-11-15T13:29:17;100410.00;;;22.40
67501;BMP180;54349;52.528;19.760;2022-11-15T13:31:47;100415.20;;;22.40
67501;BMP180;54349;52.528;19.760;2022-11-15T13:34:37;100412.40;;;22.38
67501;BMP180;54349;52.528;19.760;2022-11-15T13:39:49;100411.60;;;22.38
67501;BMP180;54349;52.528;19.760;2022-11-15T13:42:20;100407.60;;;22.40
67501;BMP180;54349;52.528;19.760;2022-11-15T13:45:04;100411.60;;;22.40
67501;BMP180;54349;52.528;19.760;2022-11-15T13:47:32;100412.40;;;22.40
67501;BMP180;54349;52.528;19.760;2022-11-15T13:50:00;100410.00;;;22.40
67501;BMP180;54349;52.528;19.760;2022-11-15T13:52:37;100411.80;;;22.38
67501;BMP180;54349;52.528;19.760;2022-11-15T13:55:16;100413.60;;;22.36
67501;BMP180;54349;52.528;19.760;2022-11-15T13:57:54;100415.20;;;22.36
67501;BMP180;54349;52.528;19.760;2022-11-15T14:00:42;100418.20;;;22.36
67501;BMP180;54349;52.528;19.760;2022-11-15T14:03:20;100411.40;;;22.36
67501;BMP180;54349;52.528;19.760;2022-11-15T14:06:12;100405.20;;;22.36
67501;BMP180;54349;52.528;19.760;2022-11-15T14:11:55;100393.60;;;22.34
67501;BMP180;54349;52.528;19.760;2022-11-15T14:14:26;100391.00;;;22.32
67501;BMP180;54349;52.528;19.760;2022-11-15T14:17:00;100393.00;;;22.30
67501;BMP180;54349;52.528;19.760;2022-11-15T14:22:29;100384.40;;;22.34
67501;BMP180;54349;52.528;19.760;2022-11-15T14:25:17;100381.00;;;22.30
67501;BMP180;54349;52.528;19.760;2022-11-15T14:30:54;100378.20;;;22.30
67501;BMP180;54349;52.528;19.760;2022-11-15T14:33:34;100377.20;;;22.30
67501;BMP180;54349;52.528;19.760;2022-11-15T14:36:23;100378.00;;;22.30
67501;BMP180;54349;52.528;19.760;2022-11-15T14:38:51;100381.80;;;22.30
67501;BMP180;54349;52.528;19.760;2022-11-15T14:41:20;100381.80;;;22.30
67501;BMP180;54349;52.528;19.760;2022-11-15T14:43:50;100380.60;;;22.30
67501;BMP180;54349;52.528;19.760;2022-11-15T14:46:19;100375.80;;;22.30
67501;BMP180;54349;52.528;19.760;2022-11-15T14:48:47;100376.40;;;22.30
67501;BMP180;54349;52.528;19.760;2022-11-15T14:51:17;100381.40;;;22.30
67501;BMP180;54349;52.528;19.760;2022-11-15T14:53:47;100380.20;;;22.30
67501;BMP180;54349;52.528;19.760;2022-11-15T14:56:16;100381.40;;;22.30
67501;BMP180;54349;52.528;19.760;2022-11-15T14:58:44;100379.40;;;22.30
67501;BMP180;54349;52.528;19.760;2022-11-15T15:01:25;100381.40;;;22.30
67501;BMP180;54349;52.528;19.760;2022-11-15T15:03:54;100386.80;;;22.30
67501;BMP180;54349;52.528;19.760;2022-11-15T15:06:25;100382.80;;;22.30
67501;BMP180;54349;52.528;19.760;2022-11-15T15:08:53;100384.60;;;22.30
67501;BMP180;54349;52.528;19.760;2022-11-15T15:11:26;100381.40;;;22.30
67501;BMP180;54349;52.528;19.760;2022-11-15T15:13:54;100377.40;;;22.30
67501;BMP180;54349;52.528;19.760;2022-11-15T15:16:25;100377.40;;;22.30
67501;BMP180;54349;52.528;19.760;2022-11-15T15:18:53;100374.20;;;22.30
67501;BMP180;54349;52.528;19.760;2022-11-15T15:21:27;100377.20;;;22.30
67501;BMP180;54349;52.528;19.760;2022-11-15T15:24:02;100373.00;;;22.30
67501;BMP180;54349;52.528;19.760;2022-11-15T15:26:31;100372.60;;;22.30
67501;BMP180;54349;52.528;19.760;2022-11-15T15:29:04;100371.00;;;22.30
67501;BMP180;54349;52.528;19.760;2022-11-15T15:31:32;100365.60;;;22.30
67501;BMP180;54349;52.528;19.760;2022-11-15T15:34:01;100368.60;;;22.30
67501;BMP180;54349;52.528;19.760;2022-11-15T15:36:31;100361.00;;;22.30
67501;BMP180;54349;52.528;19.760;2022-11-15T15:38:59;100363.60;;;22.30
67501;BMP180;54349;52.528;19.760;2022-11-15T15:41:28;100363.40;;;22.30
67501;BMP180;54349;52.528;19.760;2022-11-15T15:43:57;100365.00;;;22.30
67501;BMP180;54349;52.528;19.760;2022-11-15T15:46:25;100366.20;;;22.30
67501;BMP180;54349;52.528;19.760;2022-11-15T15:48:53;100359.60;;;22.30
67501;BMP180;54349;52.528;19.760;2022-11-15T15:51:22;100360.00;;;22.30
67501;BMP180;54349;52.528;19.760;2022-11-15T15:53:50;100355.80;;;22.30
67501;BMP180;54349;52.528;19.760;2022-11-15T15:56:22;100348.80;;;22.30
67501;BMP180;54349;52.528;19.760;2022-11-15T15:58:50;100348.20;;;22.30
67501;BMP180;54349;52.528;19.760;2022-11-15T16:01:20;100346.60;;;22.30
67501;BMP180;54349;52.528;19.760;2022-11-15T16:03:48;100347.20;;;22.30
67501;BMP180;54349;52.528;19.760;2022-11-15T16:06:35;100343.80;;;22.30
67501;BMP180;54349;52.528;19.760;2022-11-15T16:09:05;100345.80;;;22.30
67501;BMP180;54349;52.528;19.760;2022-11-15T16:11:46;100344.40;;;22.30
67501;BMP180;54349;52.528;19.760;2022-11-15T16:14:14;100344.80;;;22.30
67501;BMP180;54349;52.528;19.760;2022-11-15T16:16:42;100347.20;;;22.30
67501;BMP180;54349;52.528;19.760;2022-11-15T16:19:11;100351.00;;;22.30
67501;BMP180;54349;52.528;19.760;2022-11-15T16:21:40;100343.20;;;22.30
67501;BMP180;54349;52.528;19.760;2022-11-15T16:24:08;100341.20;;;22.30
67501;BMP180;54349;52.528;19.760;2022-11-15T16:26:37;100339.20;;;22.30
67501;BMP180;54349;52.528;19.760;2022-11-15T16:29:05;100334.80;;;22.30
67501;BMP180;54349;52.528;19.760;2022-11-15T16:31:35;100333.60;;;22.30
67501;BMP180;54349;52.528;19.760;2022-11-15T16:34:04;100334.20;;;22.30
67501;BMP180;54349;52.528;19.760;2022-11-15T16:36:34;100329.20;;;22.30
67501;BMP180;54349;52.528;19.760;2022-11-15T16:39:03;100330.00;;;22.30
67501;BMP180;54349;52.528;19.760;2022-11-15T16:41:32;100324.20;;;22.30
67501;BMP180;54349;52.528;19.760;2022-11-15T16:44:00;100330.00;;;22.30
67501;BMP180;54349;52.528;19.760;2022-11-15T16:46:29;100332.40;;;22.30
67501;BMP180;54349;52.528;19.760;2022-11-15T16:48:57;100334.20;;;22.30
67501;BMP180;54349;52.528;19.760;2022-11-15T16:51:26;100332.80;;;22.30
67501;BMP180;54349;52.528;19.760;2022-11-15T16:53:54;100331.40;;;22.30
67501;BMP180;54349;52.528;19.760;2022-11-15T16:56:29;100337.60;;;22.30
67501;BMP180;54349;52.528;19.760;2022-11-15T16:58:59;100339.20;;;22.30
67501;BMP180;54349;52.528;19.760;2022-11-15T17:01:33;100339.80;;;22.30
67501;BMP180;54349;52.528;19.760;2022-11-15T17:04:03;100340.40;;;22.30
67501;BMP180;54349;52.528;19.760;2022-11-15T17:06:42;100344.40;;;22.20
67501;BMP180;54349;52.528;19.760;2022-11-15T17:09:20;100336.60;;;22.20
67501;BMP180;54349;52.528;19.760;2022-11-15T17:11:51;100337.60;;;22.20
67501;BMP180;54349;52.528;19.760;2022-11-15T17:14:20;100334.80;;;22.20